Latest Weather Observations for Bushy Park

IDT60901

Issued at 9:41 pm EST Friday 26 April 2019 (issued every 10 minutes, with the page automatically refreshed every 10 minutes)

About weather observations | Map of Hobart area stations | Latest observations for Hobart area | Other Formats
Station Details ID: 095003 Name: BUSHY PARK (BUSHY PARK ESTATES) Lat: -42.71 Lon: 146.90 Height: 27.0 m
Data from the previous 72 hours. | See also: Recent months at Bushy Park
Date/Time
EST
Temp
°C
App
Temp
°C
Dew
Point
°C
Rel
Hum
%
Delta-T
°C
Wind Press
QNH
hPa
Press
MSL
hPa
Rain since
9am
mm
Dir  Spd
km/h
Gust
km/h
Spd
kts
Gust
kts
26/09:30pm 5.4 3.4 4.2 92 0.5 W 4 9 2 5 - - 7.0
26/09:00pm 5.0 2.4 4.1 94 0.4 W 7 11 4 6 - - 6.6
26/08:30pm 5.2 2.6 4.0 92 0.5 NNW 7 11 4 6 - - 6.6
26/08:00pm 5.3 2.5 3.4 87 0.8 W 7 11 4 6 - - 6.0
26/07:30pm 5.1 2.0 3.7 91 0.6 N 9 13 5 7 - - 5.8
26/07:00pm 4.9 1.9 4.0 94 0.4 NNE 9 13 5 7 - - 5.8
26/06:30pm 5.2 2.1 3.5 89 0.7 NW 9 13 5 7 - - 5.8
26/06:00pm 5.7 3.1 4.1 89 0.7 W 7 9 4 5 - - 5.6
26/05:30pm 5.8 2.5 2.7 80 1.3 WSW 9 17 5 9 - - 5.2
26/05:00pm 6.6 3.5 3.6 81 1.3 NW 9 17 5 9 - - 4.8
26/04:30pm 7.1 2.9 3.6 78 1.5 N 15 19 8 10 - - 4.8
26/04:00pm 8.0 2.4 3.4 73 2.0 S 22 35 12 19 - - 4.2
26/03:30pm 8.6 5.2 4.1 73 2.0 WNW 11 19 6 10 - - 4.2
26/03:00pm 8.2 5.6 3.3 71 2.1 N 6 15 3 8 - - 4.0
26/02:30pm 7.3 3.5 3.8 78 1.5 W 13 24 7 13 - - 4.0
26/02:00pm 8.9 4.5 4.9 76 1.8 N 17 24 9 13 - - 3.6
26/01:30pm 8.3 5.4 4.7 78 1.6 NNW 9 19 5 10 - - 3.6
26/01:00pm 8.0 4.7 4.6 79 1.5 W 11 17 6 9 - - 2.4
26/12:30pm 9.2 3.9 2.9 65 2.7 WNW 20 33 11 18 - - 1.2
26/12:00pm 10.3 6.6 4.3 66 2.7 NW 13 37 7 20 - - 1.2
26/11:30am 8.1 3.4 5.2 82 1.3 WNW 19 46 10 25 - - 1.2
26/11:00am 11.3 5.2 2.9 56 3.7 NW 24 44 13 24 - - 0.4
26/10:33am 9.0 1.5 3.5 68 2.4 NW 32 52 17 28 - - 0.4
26/10:30am 8.8 1.2 3.0 67 2.5 NW 32 41 17 22 - - 0.4
26/10:00am 8.5 3.5 3.7 72 2.1 WNW 19 37 10 20 - - 0.2
26/09:30am 8.8 3.3 3.8 71 2.2 NNW 22 32 12 17 - - 0.2
26/09:00am 8.3 5.2 3.5 72 2.1 W 9 17 5 9 - - 4.6
26/08:30am 7.6 1.6 3.4 75 1.8 NW 24 35 13 19 - - 4.4
26/08:29am 7.6 0.9 3.4 75 1.8 NW 28 35 15 19 - - 4.4
26/08:00am 6.5 3.6 4.4 86 0.9 NE 9 15 5 8 - - 4.4
26/07:30am 6.7 2.7 4.7 87 0.9 NNW 15 24 8 13 - - 4.4
26/07:00am 6.7 1.1 3.7 81 1.3 NW 22 32 12 17 - - 3.8
26/06:30am 6.7 3.7 3.9 82 1.2 SW 9 17 5 9 - - 3.4
26/06:00am 5.9 1.3 3.5 84 1.0 N 17 26 9 14 - - 3.2
26/05:30am 7.0 -0.1 3.8 80 1.4 NW 30 61 16 33 - - 3.2
26/05:12am 7.0 -0.3 4.3 83 1.2 NW 32 50 17 27 - - 2.8
26/05:06am 7.4 -0.1 3.2 75 1.8 W 32 48 17 26 - - 2.4
26/05:03am 7.9 -1.0 3.0 71 2.1 WSW 39 65 21 35 - - 2.2
26/05:00am 8.2 3.5 3.1 70 2.2 W 17 35 9 19 - - 1.8
26/04:30am 8.8 2.0 1.0 58 3.2 NNW 26 35 14 19 - - 1.8
26/04:17am 9.4 1.4 0.6 54 3.6 NW 32 50 17 27 - - 1.8
26/04:09am 9.2 0.6 0.0 52 3.7 NW 35 46 19 25 - - 1.8
26/04:00am 8.3 3.7 1.3 61 2.9 NNW 15 24 8 13 - - 1.8
26/03:30am 10.0 4.3 -0.8 47 4.3 NW 19 32 10 17 - - 1.8
26/03:00am 10.0 4.6 1.4 55 3.6 NW 19 30 10 16 - - 1.8
26/02:30am 10.6 6.0 3.6 62 3.1 WNW 17 26 9 14 - - 1.8
26/02:00am 10.6 4.9 4.7 67 2.7 WNW 24 46 13 25 - - 1.8
26/01:30am 11.0 5.9 6.1 72 2.3 W 22 50 12 27 - - 1.8
26/01:00am 11.8 6.2 8.6 81 1.6 NW 28 43 15 23 - - 1.4
26/12:40am 14.3 8.1 6.0 57 4.0 NW 28 46 15 25 - - 0.0
26/12:30am 14.4 9.1 4.8 52 4.5 NNW 22 39 12 21 - - 0.0
26/12:00am 13.0 8.9 6.1 63 3.3 NNW 17 26 9 14 - - 0.0
 
Date/Time
EST
Temp
°C
App
Temp
°C
Dew
Point
°C
Rel
Hum
%
Delta-T
°C
Wind Press
QNH
hPa
Press
MSL
hPa
Rain since
9am
mm
Dir  Spd
km/h
Gust
km/h
Spd
kts
Gust
kts
25/11:30pm 14.8 7.1 5.4 53 4.5 NNW 35 57 19 31 - - 0.0
25/11:19pm 15.0 8.1 4.6 50 4.8 NW 30 57 16 31 - - 0.0
25/11:00pm 14.6 8.8 4.6 51 4.6 NNW 24 37 13 20 - - 0.0
25/10:30pm 14.7 7.3 4.2 49 4.8 NNW 32 50 17 27 - - 0.0
25/10:00pm 15.0 8.6 5.1 51 4.7 NNW 28 43 15 23 - - 0.0
25/09:30pm 15.4 8.6 4.9 49 4.9 NNW 30 50 16 27 - - 0.0
25/09:08pm 15.5 7.8 5.5 51 4.8 N 35 61 19 33 - - 0.0
25/09:00pm 15.3 7.4 6.0 54 4.5 N 37 54 20 29 - - 0.0
25/08:52pm 14.8 7.9 6.4 57 4.1 N 32 54 17 29 - - 0.0
25/08:30pm 14.8 8.7 6.4 57 4.1 N 28 33 15 18 - - 0.0
25/08:16pm 15.0 8.7 5.6 53 4.5 N 28 46 15 25 - - 0.0
25/08:00pm 15.2 7.8 5.1 51 4.8 N 33 44 18 24 - - 0.0
25/07:30pm 15.2 6.2 4.6 49 5.0 NNW 41 59 22 32 - - 0.0
25/07:00pm 15.1 7.2 6.3 55 4.3 NNW 37 56 20 30 - - 0.0
25/06:31pm 15.5 6.6 5.3 50 4.8 NNW 41 59 22 32 - - 0.0
25/06:30pm 15.5 6.6 5.3 50 4.8 NNW 41 56 22 30 - - 0.0
25/06:17pm 15.4 7.0 5.4 51 4.8 NNW 39 57 21 31 - - 0.0
25/06:00pm 15.1 6.9 5.0 51 4.8 NNW 37 50 20 27 - - 0.0
25/05:30pm 15.0 7.2 5.1 51 4.7 NNW 35 54 19 29 - - 0.0
25/05:00pm 15.5 10.1 4.5 48 5.1 NNW 22 48 12 26 - - 0.0
25/04:47pm 15.9 9.2 3.9 44 5.6 NNW 28 46 15 25 - - 0.0
25/04:30pm 16.0 10.8 5.4 49 5.1 NNW 22 39 12 21 - - 0.0
25/04:00pm 17.6 13.2 5.0 43 6.0 NW 17 22 9 12 - - 0.0
25/03:30pm 17.8 12.8 4.7 42 6.3 NNW 20 39 11 21 - - 0.0
25/03:06pm 18.1 11.0 5.5 43 6.1 NNW 32 50 17 27 - - 0.0
25/03:00pm 18.3 10.6 5.5 43 6.2 NNW 35 48 19 26 - - 0.0
25/02:33pm 18.6 11.4 5.1 41 6.5 NNW 32 50 17 27 - - 0.0
25/02:30pm 18.5 10.7 4.9 40 6.6 NNW 35 50 19 27 - - 0.0
25/02:05pm 17.5 10.3 5.1 44 6.0 NNW 32 50 17 27 - - 0.0
25/02:00pm 17.5 10.3 4.8 43 6.1 NNW 32 46 17 25 - - 0.0
25/01:38pm 17.4 10.8 4.1 41 6.3 NNW 28 52 15 28 - - 0.0
25/01:30pm 17.4 11.8 5.3 45 5.8 NNW 24 39 13 21 - - 0.0
25/01:00pm 18.2 15.1 5.6 43 6.1 WSW 11 19 6 10 - - 0.0
25/12:30pm 17.1 13.5 5.1 45 5.7 WNW 13 28 7 15 - - 0.0
25/12:00pm 17.3 14.0 4.6 43 6.0 W 11 19 6 10 - - 0.0
25/11:30am 16.4 12.6 4.1 44 5.7 WNW 13 26 7 14 - - 0.0
25/11:00am 16.3 12.2 4.5 45 5.5 NW 15 30 8 16 - - 0.0
25/10:30am 17.1 13.3 5.6 46 5.6 NW 15 20 8 11 - - 0.0
25/10:00am 16.0 12.4 5.2 48 5.1 W 13 22 7 12 - - 0.0
25/09:30am 15.3 12.1 6.8 57 4.2 W 13 24 7 13 - - 0.0
25/09:00am 14.1 10.0 6.2 59 3.8 W 17 28 9 15 - - 0.0
25/08:30am 14.1 9.6 6.2 59 3.8 W 19 30 10 16 - - 0.0
25/08:00am 13.9 10.1 6.0 59 3.8 NNW 15 20 8 11 - - 0.0
25/07:30am 13.4 10.0 6.1 61 3.5 NW 13 20 7 11 - - 0.0
25/07:00am 13.9 10.0 5.2 55 4.1 WNW 15 28 8 15 - - 0.0
25/06:30am 14.5 8.6 3.9 49 4.9 WNW 24 39 13 21 - - 0.0
25/06:00am 14.3 8.9 4.4 51 4.6 NW 22 37 12 20 - - 0.0
25/05:30am 14.2 9.0 3.5 48 4.8 NW 20 30 11 16 - - 0.0
25/05:00am 14.3 9.1 3.3 47 5.0 NW 20 28 11 15 - - 0.0
25/04:30am 14.0 6.4 4.0 51 4.6 NW 33 57 18 31 - - 0.0
25/04:21am 14.2 5.8 3.5 48 4.8 WNW 37 57 20 31 - - 0.0
25/04:06am 14.2 7.4 3.2 47 4.9 NW 28 50 15 27 - - 0.0
25/04:00am 13.8 7.9 3.8 51 4.5 NNW 24 39 13 21 - - 0.0
25/03:30am 13.8 6.1 3.5 50 4.6 NW 33 59 18 32 - - 0.0
25/03:00am 13.8 7.0 5.1 55 4.1 W 30 52 16 28 - - 0.0
25/02:52am 14.0 6.9 5.4 56 4.0 WNW 32 52 17 28 - - 0.0
25/02:30am 14.1 9.0 4.2 51 4.5 NNW 20 35 11 19 - - 0.0
25/02:00am 14.6 7.8 2.9 45 5.2 NNW 28 37 15 20 - - 0.0
25/01:30am 14.7 9.7 4.7 51 4.7 NW 20 46 11 25 - - 0.0
25/01:00am 15.4 9.5 5.9 53 4.6 NW 26 44 14 24 - - 0.0
25/12:30am 15.7 8.7 5.8 51 4.8 NNW 32 54 17 29 - - 0.0
25/12:25am 16.0 9.6 5.2 48 5.1 NW 28 46 15 25 - - 0.0
25/12:00am 15.7 9.4 5.8 51 4.8 NNW 28 41 15 22 - - 0.0
 
Date/Time
EST
Temp
°C
App
Temp
°C
Dew
Point
°C
Rel
Hum
%
Delta-T
°C
Wind Press
QNH
hPa
Press
MSL
hPa
Rain since
9am
mm
Dir  Spd
km/h
Gust
km/h
Spd
kts
Gust
kts
24/11:30pm 15.9 11.0 5.3 49 5.1 WNW 20 30 11 16 - - 0.0
24/11:16pm 15.6 9.4 6.2 53 4.6 NW 28 46 15 25 - - 0.0
24/11:00pm 15.9 10.0 5.8 51 4.9 NW 26 37 14 20 - - 0.0
24/10:30pm 15.4 8.0 6.7 56 4.3 NNW 35 46 19 25 - - 0.0
24/10:01pm 15.4 9.1 5.9 53 4.6 NNW 28 48 15 26 - - 0.0
24/10:00pm 15.3 9.4 6.0 54 4.5 NNW 26 41 14 22 - - 0.0
24/09:30pm 15.4 8.3 6.4 55 4.4 NNW 33 54 18 29 - - 0.0
24/09:04pm 15.0 8.2 7.1 59 3.9 NW 32 50 17 27 - - 0.0
24/09:00pm 14.9 8.0 7.3 60 3.7 NNW 33 50 18 27 - - 0.0
24/08:36pm 15.0 6.8 6.7 57 4.0 NNW 39 57 21 31 - - 0.0
24/08:30pm 15.1 6.5 6.5 56 4.2 NNW 41 57 22 31 - - 0.0
24/08:06pm 14.9 7.0 6.0 55 4.3 NNW 37 57 20 31 - - 0.0
24/08:00pm 14.7 6.4 6.0 56 4.2 NNW 39 56 21 30 - - 0.0
24/07:30pm 14.7 6.2 5.2 53 4.5 NNW 39 57 21 31 - - 0.0
24/07:07pm 14.7 6.9 5.0 52 4.6 NNW 35 56 19 30 - - 0.0
24/07:00pm 14.8 7.0 4.9 51 4.6 NNW 35 48 19 26 - - 0.0
24/06:47pm 14.6 6.8 5.1 53 4.5 NNW 35 54 19 29 - - 0.0
24/06:30pm 14.8 7.6 4.9 51 4.6 NNW 32 46 17 25 - - 0.0
24/06:25pm 14.9 8.4 4.7 50 4.8 NNW 28 46 15 25 - - 0.0
24/06:00pm 15.0 9.1 3.8 47 5.1 NNW 24 35 13 19 - - 0.0
24/05:30pm 15.0 10.1 2.3 42 5.6 NW 17 30 9 16 - - 0.0
24/05:00pm 16.6 9.1 1.0 35 6.8 NW 30 44 16 24 - - 0.0
24/04:30pm 16.9 13.0 5.4 46 5.5 NW 15 39 8 21 - - 0.0
24/04:00pm 17.5 15.8 8.2 54 4.8 WNW 7 13 4 7 - - 0.0
24/03:30pm 17.7 15.2 8.0 53 4.9 W 11 15 6 8 - - 0.0
24/03:00pm 18.6 16.6 8.7 52 5.1 W 9 13 5 7 - - 0.0
24/02:30pm 17.7 16.8 9.1 57 4.5 SSW 4 7 2 4 - - 0.0
24/02:00pm 18.7 16.4 7.3 47 5.8 SSW 9 15 5 8 - - 0.0
24/01:30pm 18.1 16.4 8.3 52 5.0 WSW 7 13 4 7 - - 0.0
24/01:00pm 18.8 15.8 9.2 53 5.0 N 15 22 8 12 - - 0.0
24/12:30pm 18.0 15.6 8.8 55 4.8 N 11 19 6 10 - - 0.0
24/12:00pm 16.9 14.2 8.8 59 4.2 N 13 17 7 9 - - 0.0
24/11:30am 15.8 14.0 9.5 66 3.3 N 9 13 5 7 - - 0.0
24/11:00am 14.5 12.7 9.5 72 2.6 N 9 11 5 6 - - 0.0
24/10:30am 12.8 12.3 9.3 79 1.8 NE 2 9 1 5 - - 0.0
24/10:00am 11.5 10.2 9.3 86 1.1 NNE 6 9 3 5 - - 0.0
24/09:30am 10.7 9.4 9.3 91 0.7 N 6 7 3 4 - - 0.0
24/09:00am 9.3 7.8 8.5 95 0.4 N 6 7 3 4 - - 0.0
24/08:30am 7.9 6.5 7.3 96 0.3 WSW 4 7 2 4 - - 0.0
24/08:00am 7.0 5.8 6.3 95 0.3 WSW 2 9 1 5 - - 0.0
24/07:30am 6.4 5.5 6.0 97 0.2 CALM 0 0 0 0 - - 0.0
24/07:00am 6.4 5.4 5.7 95 0.3 CALM 0 0 0 0 - - 0.0
24/06:30am 5.8 4.0 5.3 97 0.2 W 4 6 2 3 - - 0.0
24/06:00am 6.5 5.6 6.1 97 0.2 CALM 0 0 0 0 - - 0.0
24/05:30am 6.0 3.3 5.6 97 0.2 SW 9 11 5 6 - - 0.0
24/05:00am 6.4 4.2 6.0 97 0.2 NNW 7 9 4 5 - - 0.0
24/04:30am 6.5 4.8 6.1 97 0.2 S 4 7 2 4 - - 0.0
24/04:00am 6.7 5.9 6.3 97 0.2 CALM 0 0 0 0 - - 0.0
24/03:30am 7.4 5.5 6.8 96 0.3 WNW 6 9 3 5 - - 0.0
24/03:00am 8.2 6.3 7.6 96 0.3 S 7 11 4 6 - - 0.0
24/02:30am 8.3 6.6 7.5 95 0.4 NNE 6 9 3 5 - - 0.0
24/02:00am 8.7 7.5 8.1 96 0.3 WSW 4 7 2 4 - - 0.0
24/01:30am 9.7 8.1 8.7 93 0.5 W 7 9 4 5 - - 0.0
24/01:00am 9.9 8.4 9.1 95 0.4 NE 7 9 4 5 - - 0.0
24/12:30am 10.5 10.4 9.5 93 0.5 CALM 0 7 0 4 - - 0.0
24/12:00am 10.9 9.7 9.7 92 0.6 WSW 6 9 3 5 - - 0.0
 
Date/Time
EST
Temp
°C
App
Temp
°C
Dew
Point
°C
Rel
Hum
%
Delta-T
°C
Wind Press
QNH
hPa
Press
MSL
hPa
Rain since
9am
mm
Dir  Spd
km/h
Gust
km/h
Spd
kts
Gust
kts
23/11:30pm 11.4 10.1 10.0 91 0.7 NW 7 9 4 5 - - 0.0
23/11:00pm 11.9 10.4 10.6 92 0.7 W 9 11 5 6 - - 0.0
23/10:30pm 12.2 12.4 10.5 89 0.9 CALM 0 0 0 0 - - 0.0
23/10:00pm 12.6 12.8 10.5 87 1.1 CALM 0 0 0 0 - - 0.0

Latest Capital City Observations: Canberra | Sydney | Melbourne | Brisbane | Adelaide | Perth | Hobart | Darwin

Other formats

Comma delimited format used in spreadsheet applications
http://www.bom.gov.au/fwo/IDT60901/IDT60901.94964.axf

JavaScript Object Notation format (JSON) in row-major order
http://www.bom.gov.au/fwo/IDT60901/IDT60901.94964.json

Data quality

Most of these data are generated automatically and are frequently updated. Quality checks on data are not normally performed. It is possible for incorrect values to appear. Refer to information at About Latest Weather Observations and please check the disclaimer before using these data.